sensor_id;sensor_type;location;lat;lon;timestamp;P1;durP1;ratioP1;P2;durP2;ratioP2
49980;SDS011;35871;51.594;7.138;2023-07-29T05:59:44;4.38;;;2.47;;
49980;SDS011;35871;51.594;7.138;2023-07-29T06:04:45;7.60;;;1.90;;
49980;SDS011;35871;51.594;7.138;2023-07-29T06:09:47;2.35;;;1.40;;
49980;SDS011;35871;51.594;7.138;2023-07-29T06:14:48;3.70;;;1.50;;
49980;SDS011;35871;51.594;7.138;2023-07-29T06:19:49;2.40;;;1.40;;
49980;SDS011;35871;51.594;7.138;2023-07-29T06:24:50;2.58;;;1.60;;
49980;SDS011;35871;51.594;7.138;2023-07-29T06:29:51;1.85;;;1.30;;
49980;SDS011;35871;51.594;7.138;2023-07-29T06:34:52;2.10;;;1.60;;
49980;SDS011;35871;51.594;7.138;2023-07-29T06:39:54;1.42;;;1.17;;
49980;SDS011;35871;51.594;7.138;2023-07-29T06:44:55;1.75;;;1.42;;
49980;SDS011;35871;51.594;7.138;2023-07-29T06:49:56;2.45;;;1.45;;
49980;SDS011;35871;51.594;7.138;2023-07-29T06:54:57;2.20;;;1.60;;
49980;SDS011;35871;51.594;7.138;2023-07-29T06:59:58;3.47;;;2.00;;
49980;SDS011;35871;51.594;7.138;2023-07-29T07:04:59;4.03;;;1.80;;
49980;SDS011;35871;51.594;7.138;2023-07-29T07:10:00;4.32;;;1.60;;
49980;SDS011;35871;51.594;7.138;2023-07-29T07:15:01;2.53;;;1.75;;
49980;SDS011;35871;51.594;7.138;2023-07-29T07:20:03;2.95;;;2.40;;
49980;SDS011;35871;51.594;7.138;2023-07-29T07:25:04;2.60;;;1.73;;
49980;SDS011;35871;51.594;7.138;2023-07-29T07:30:05;3.40;;;1.88;;
49980;SDS011;35871;51.594;7.138;2023-07-29T07:35:06;3.05;;;1.90;;
49980;SDS011;35871;51.594;7.138;2023-07-29T07:40:08;2.95;;;1.63;;
49980;SDS011;35871;51.594;7.138;2023-07-29T07:45:09;2.70;;;2.00;;
49980;SDS011;35871;51.594;7.138;2023-07-29T07:50:10;4.60;;;3.53;;
49980;SDS011;35871;51.594;7.138;2023-07-29T07:55:11;4.20;;;3.28;;
49980;SDS011;35871;51.594;7.138;2023-07-29T08:00:12;4.70;;;4.28;;
49980;SDS011;35871;51.594;7.138;2023-07-29T08:05:15;4.82;;;4.32;;
49980;SDS011;35871;51.594;7.138;2023-07-29T08:10:16;5.57;;;3.60;;
49980;SDS011;35871;51.594;7.138;2023-07-29T08:15:27;3.92;;;3.10;;
49980;SDS011;35871;51.594;7.138;2023-07-29T08:20:35;4.40;;;3.45;;
49980;SDS011;35871;51.594;7.138;2023-07-29T08:25:39;6.22;;;2.70;;
49980;SDS011;35871;51.594;7.138;2023-07-29T08:30:40;3.72;;;3.20;;
49980;SDS011;35871;51.594;7.138;2023-07-29T08:35:47;4.78;;;2.60;;
49980;SDS011;35871;51.594;7.138;2023-07-29T08:46:29;3.88;;;2.88;;
49980;SDS011;35871;51.594;7.138;2023-07-29T09:30:51;3.40;;;2.05;;
49980;SDS011;35871;51.594;7.138;2023-07-29T09:47:46;4.93;;;3.25;;
49980;SDS011;35871;51.594;7.138;2023-07-29T09:53:06;3.83;;;3.42;;
49980;SDS011;35871;51.594;7.138;2023-07-29T09:58:33;4.00;;;3.58;;
49980;SDS011;35871;51.594;7.138;2023-07-29T10:09:20;2.78;;;2.42;;
49980;SDS011;35871;51.594;7.138;2023-07-29T10:14:24;3.80;;;3.15;;
49980;SDS011;35871;51.594;7.138;2023-07-29T10:19:50;10.32;;;7.95;;
49980;SDS011;35871;51.594;7.138;2023-07-29T10:25:22;6.53;;;4.28;;
49980;SDS011;35871;51.594;7.138;2023-07-29T10:30:44;4.65;;;3.63;;
49980;SDS011;35871;51.594;7.138;2023-07-29T10:35:46;4.82;;;3.25;;
49980;SDS011;35871;51.594;7.138;2023-07-29T10:41:18;6.35;;;4.00;;
49980;SDS011;35871;51.594;7.138;2023-07-29T10:46:38;4.75;;;3.80;;
49980;SDS011;35871;51.594;7.138;2023-07-29T11:09:38;2.70;;;2.50;;
49980;SDS011;35871;51.594;7.138;2023-07-29T11:14:51;4.70;;;2.83;;
49980;SDS011;35871;51.594;7.138;2023-07-29T11:20:17;2.87;;;2.23;;
49980;SDS011;35871;51.594;7.138;2023-07-29T11:25:17;3.85;;;2.17;;
